createdAt,value
2022-10-21T00:02:04.556Z,96770.56
2022-10-21T00:04:34.011Z,96760.13
2022-10-21T00:07:02.396Z,96763.25
2022-10-21T00:09:32.089Z,96769.63
2022-10-21T00:12:00.409Z,96760.63
2022-10-21T00:14:28.832Z,96759.13
2022-10-21T00:16:57.122Z,96764.78
2022-10-21T00:19:32.786Z,96787.28
2022-10-21T00:22:01.044Z,96814.31
2022-10-21T00:24:29.897Z,96825.69
2022-10-21T00:26:58.213Z,96804.28
2022-10-21T00:29:26.561Z,96816.28
2022-10-21T00:31:55.299Z,96802.25
2022-10-21T00:34:28.230Z,96788.09
2022-10-21T00:36:59.994Z,96798.38
2022-10-21T00:39:29.601Z,96778.38
2022-10-21T00:41:57.933Z,96768.91
2022-10-21T00:44:28.310Z,96756.34
2022-10-21T00:47:03.438Z,96752.63
2022-10-21T00:49:40.459Z,96744.03
2022-10-21T00:52:15.308Z,96749.78
2022-10-21T00:54:44.506Z,96761.06
2022-10-21T00:57:13.084Z,96765.91
2022-10-21T00:59:46.689Z,96781.16
2022-10-21T01:02:15.358Z,96766.69
2022-10-21T01:04:44.129Z,96764.94
2022-10-21T01:07:14.111Z,96756.69
2022-10-21T01:09:42.613Z,96769.50
2022-10-21T01:12:25.890Z,96763.09
2022-10-21T01:14:57.936Z,96754.22
2022-10-21T01:17:44.964Z,96755.72
2022-10-21T01:20:29.788Z,96766.63
2022-10-21T01:23:34.689Z,96775.84
2022-10-21T01:26:22.752Z,96751.22
2022-10-21T01:29:16.192Z,96733.28
2022-10-21T01:31:50.360Z,96729.69
2022-10-21T01:34:25.979Z,96717.50
2022-10-21T01:36:59.800Z,96708.47
2022-10-21T01:39:36.951Z,96701.91
2022-10-21T01:42:12.294Z,96706.25
2022-10-21T01:44:45.282Z,96697.66
2022-10-21T01:47:19.331Z,96706.09
2022-10-21T01:49:51.348Z,96700.34
2022-10-21T01:52:19.958Z,96698.41
2022-10-21T01:54:56.488Z,96705.63
2022-10-21T01:57:30.859Z,96709.38
2022-10-21T02:00:01.266Z,96701.13
2022-10-21T02:02:34.942Z,96719.84
2022-10-21T02:05:11.537Z,96705.00
2022-10-21T02:07:39.941Z,96701.91
2022-10-21T02:10:10.021Z,96695.81
2022-10-21T02:12:41.598Z,96688.50
2022-10-21T02:15:12.838Z,96694.44
2022-10-21T02:17:50.762Z,96702.06
2022-10-21T02:20:20.484Z,96715.31
2022-10-21T02:22:49.872Z,96730.00
2022-10-21T02:25:22.965Z,96744.22
2022-10-21T02:27:53.146Z,96745.22
2022-10-21T02:30:22.193Z,96730.78
2022-10-21T02:33:01.114Z,96711.28
2022-10-21T02:35:38.906Z,96694.16
2022-10-21T02:38:14.854Z,96659.94
2022-10-21T02:40:47.358Z,96669.09
2022-10-21T02:43:24.172Z,96666.22
2022-10-21T02:45:56.102Z,96652.09
2022-10-21T02:48:26.328Z,96639.47
2022-10-21T02:50:55.304Z,96641.84
2022-10-21T02:53:23.598Z,96631.53
2022-10-21T02:55:52.841Z,96628.72
2022-10-21T02:58:21.126Z,96637.03
2022-10-21T03:00:50.369Z,96626.06
2022-10-21T03:03:18.745Z,96633.63
2022-10-21T03:05:50.220Z,96618.81
2022-10-21T03:08:18.884Z,96597.31
2022-10-21T03:10:53.052Z,96594.75
2022-10-21T03:13:22.218Z,96608.47
2022-10-21T03:15:51.259Z,96605.34
2022-10-21T03:18:20.250Z,96629.75
2022-10-21T03:20:52.642Z,96621.84
2022-10-21T03:23:22.194Z,96621.06
2022-10-21T03:25:50.500Z,96629.97
2022-10-21T03:28:19.002Z,96635.47
2022-10-21T03:30:48.389Z,96634.97
2022-10-21T03:33:16.676Z,96645.28
2022-10-21T03:35:45.178Z,96664.91
2022-10-21T03:38:14.822Z,96677.69
2022-10-21T03:40:43.102Z,96679.63
2022-10-21T03:43:11.479Z,96656.38
2022-10-21T03:45:39.870Z,96643.91
2022-10-21T03:48:08.575Z,96654.78
2022-10-21T03:50:37.250Z,96638.72
2022-10-21T03:53:13.688Z,96638.72
2022-10-21T03:55:50.982Z,96642.94
2022-10-21T03:58:21.406Z,96647.75
2022-10-21T04:00:54.277Z,96627.78
2022-10-21T04:03:22.899Z,96622.03
2022-10-21T04:05:51.345Z,96636.47
2022-10-21T04:08:19.742Z,96642.13
2022-10-21T04:10:49.624Z,96623.41
2022-10-21T04:13:18.432Z,96606.06
2022-10-21T04:15:46.785Z,96598.78
2022-10-21T04:18:15.143Z,96607.81
2022-10-21T04:20:43.967Z,96616.41
2022-10-21T04:23:14.457Z,96618.91
2022-10-21T04:25:50.015Z,96601.44
2022-10-21T04:28:20.326Z,96600.22
2022-10-21T04:30:52.745Z,96597.09
2022-10-21T04:33:23.006Z,96596.22
2022-10-21T04:35:57.384Z,96580.13
2022-10-21T04:38:28.537Z,96588.47
2022-10-21T04:41:00.150Z,96553.66
2022-10-21T04:43:32.149Z,96541.72
2022-10-21T04:46:01.908Z,96555.28
2022-10-21T04:48:32.414Z,96546.22
2022-10-21T04:51:03.338Z,96536.81
2022-10-21T04:53:34.171Z,96538.28
2022-10-21T04:56:04.190Z,96538.16
2022-10-21T04:58:32.558Z,96511.78
2022-10-21T05:01:01.541Z,96503.31
2022-10-21T05:03:33.478Z,96529.19
2022-10-21T05:06:08.048Z,96530.28
2022-10-21T05:08:37.806Z,96532.34
2022-10-21T05:11:08.670Z,96513.53
2022-10-21T05:13:40.633Z,96495.38
2022-10-21T05:16:18.333Z,96492.94
2022-10-21T05:18:46.908Z,96482.47
2022-10-21T05:21:15.301Z,96473.47
2022-10-21T05:23:44.324Z,96477.03
2022-10-21T05:26:14.077Z,96460.50
2022-10-21T05:28:42.423Z,96465.34
2022-10-21T05:31:10.696Z,96459.22
2022-10-21T05:33:38.948Z,96466.31
2022-10-21T05:36:08.721Z,96455.91
2022-10-21T05:38:43.005Z,96464.91
2022-10-21T05:41:13.811Z,96483.28
2022-10-21T05:43:43.362Z,96481.44
2022-10-21T05:46:13.804Z,96475.13
2022-10-21T05:48:43.305Z,96492.91
2022-10-21T05:51:11.688Z,96496.59
2022-10-21T05:53:40.810Z,96503.84
2022-10-21T05:56:10.491Z,96504.94
2022-10-21T05:58:40.134Z,96509.19
2022-10-21T06:01:10.612Z,96521.59
2022-10-21T06:03:38.984Z,96510.88
2022-10-21T06:06:09.290Z,96512.03
2022-10-21T06:08:40.243Z,96506.63
2022-10-21T06:11:12.138Z,96497.72
2022-10-21T06:13:43.159Z,96480.47
2022-10-21T06:16:12.881Z,96476.44
2022-10-21T06:18:41.849Z,96473.91
2022-10-21T06:21:11.396Z,96466.59
2022-10-21T06:23:40.138Z,96460.09
2022-10-21T06:26:13.073Z,96451.31
2022-10-21T06:28:45.052Z,96462.50
2022-10-21T06:31:20.675Z,96466.25
2022-10-21T06:33:49.154Z,96461.22
2022-10-21T06:36:17.802Z,96451.34
2022-10-21T06:38:46.378Z,96457.34
2022-10-21T06:41:15.891Z,96459.38
2022-10-21T06:43:45.618Z,96483.88
2022-10-21T06:46:16.490Z,96518.53
2022-10-21T06:48:46.227Z,96547.81
2022-10-21T06:51:17.319Z,96581.19
2022-10-21T06:53:46.699Z,96617.91
2022-10-21T06:56:17.644Z,96634.66
2022-10-21T06:58:49.338Z,96645.38
2022-10-21T07:01:33.548Z,96658.38
2022-10-21T07:04:06.273Z,96652.16
2022-10-21T07:06:35.207Z,96669.56
2022-10-21T07:09:04.690Z,96686.00
2022-10-21T07:11:33.493Z,96695.28
2022-10-21T07:14:03.656Z,96705.00
2022-10-21T07:16:34.463Z,96712.78
2022-10-21T07:19:06.612Z,96720.56
2022-10-21T07:21:35.143Z,96713.00
2022-10-21T07:24:04.662Z,96708.59
2022-10-21T07:26:35.371Z,96698.34
2022-10-21T07:29:06.227Z,96647.63
2022-10-21T07:31:37.624Z,96585.22
2022-10-21T07:34:08.871Z,96596.78
2022-10-21T07:36:40.358Z,96617.31
2022-10-21T07:39:12.801Z,96590.41
2022-10-21T07:41:46.257Z,96610.38
2022-10-21T07:44:17.818Z,96615.31
2022-10-21T07:46:47.151Z,96611.44
2022-10-21T07:49:17.083Z,96614.78
2022-10-21T07:51:46.834Z,96612.19
2022-10-21T07:54:16.161Z,96623.69
2022-10-21T07:56:46.953Z,96617.91
2022-10-21T07:59:18.795Z,96617.66
2022-10-21T08:04:19.128Z,96615.00
2022-10-21T08:06:48.817Z,96617.72
2022-10-21T08:09:18.299Z,96621.53
2022-10-21T08:11:47.088Z,96635.38
2022-10-21T08:14:17.121Z,96637.44
2022-10-21T08:16:45.874Z,96630.84
2022-10-21T08:19:21.239Z,96614.44
2022-10-21T08:21:50.041Z,96630.91
2022-10-21T08:24:18.453Z,96624.66
2022-10-21T08:26:47.959Z,96614.25
2022-10-21T08:29:17.879Z,96608.25
2022-10-21T08:31:46.255Z,96612.03
2022-10-21T08:34:14.727Z,96593.63
2022-10-21T08:36:43.973Z,96603.97
2022-10-21T08:39:12.675Z,96602.84
2022-10-21T08:42:08.116Z,96620.53
2022-10-21T08:44:45.690Z,96621.81
2022-10-21T08:47:21.744Z,96635.63
2022-10-21T08:49:58.211Z,96654.69
2022-10-21T08:52:39.811Z,96690.28
2022-10-21T08:55:18.256Z,96789.16
2022-10-21T08:57:50.462Z,96766.19
2022-10-21T09:00:24.203Z,96776.19
2022-10-21T09:03:16.489Z,96779.00
2022-10-21T09:06:22.131Z,96796.03
2022-10-21T09:09:15.085Z,96789.31
2022-10-21T09:12:01.523Z,96778.88
2022-10-21T09:15:00.017Z,96775.66
2022-10-21T09:17:58.547Z,96791.72
2022-10-21T09:20:38.799Z,96776.88
2022-10-21T09:26:17.729Z,96774.00
2022-10-21T09:28:47.352Z,96780.38
2022-10-21T09:31:20.488Z,96770.63
2022-10-21T09:33:57.102Z,96775.25
2022-10-21T09:36:31.331Z,96766.56
2022-10-21T09:39:06.496Z,96783.56
2022-10-21T09:41:41.934Z,96782.19
2022-10-21T09:44:27.079Z,96776.69
2022-10-21T09:46:55.863Z,96769.25
2022-10-21T09:50:05.418Z,96775.19
2022-10-21T09:52:30.496Z,96772.66
2022-10-21T09:54:59.626Z,96771.78
2022-10-21T09:57:42.160Z,96785.56
2022-10-21T10:00:13.848Z,96779.31
2022-10-21T10:02:46.967Z,96781.31
2022-10-21T10:05:39.528Z,96788.81
2022-10-21T10:08:25.071Z,96801.91
2022-10-21T10:10:53.648Z,96803.75
2022-10-21T10:13:23.654Z,96800.94
2022-10-21T10:15:51.892Z,96796.47
2022-10-21T10:18:24.810Z,96790.38
2022-10-21T10:21:12.547Z,96800.06
2022-10-21T10:23:49.982Z,96792.03
2022-10-21T10:26:27.631Z,96794.22
2022-10-21T10:29:01.583Z,96802.38
2022-10-21T10:31:38.262Z,96800.06
2022-10-21T10:34:09.454Z,96798.88
2022-10-21T10:36:41.605Z,96801.66
2022-10-21T10:39:19.352Z,96784.41
2022-10-21T10:41:53.665Z,96782.59
2022-10-21T10:44:30.470Z,96767.22
2022-10-21T10:47:00.735Z,96776.84
2022-10-21T10:49:38.173Z,96772.13
2022-10-21T10:52:21.324Z,96769.88
2022-10-21T10:54:50.737Z,96762.59
2022-10-21T10:57:29.916Z,96771.81
2022-10-21T11:00:17.532Z,96774.75
2022-10-21T11:02:56.178Z,96783.34
2022-10-21T11:05:30.269Z,96772.84
2022-10-21T11:08:06.879Z,96775.91
2022-10-21T11:10:37.824Z,96783.94
2022-10-21T11:13:11.839Z,96777.38
2022-10-21T11:15:57.270Z,96764.34
2022-10-21T11:18:35.022Z,96756.94
2022-10-21T11:21:33.671Z,96770.50
2022-10-21T11:24:30.216Z,96750.81
2022-10-21T11:27:04.873Z,96756.09
2022-10-21T11:29:53.325Z,96748.91
2022-10-21T11:32:39.511Z,96761.59
2022-10-21T11:35:19.698Z,96748.66
2022-10-21T11:38:36.308Z,96751.31
2022-10-21T11:41:24.309Z,96770.38
2022-10-21T11:44:18.289Z,96765.31
2022-10-21T11:46:59.585Z,96765.53
2022-10-21T11:49:47.540Z,96771.25
2022-10-21T11:52:32.571Z,96793.22
2022-10-21T11:55:36.734Z,96793.31
2022-10-21T11:58:24.285Z,96787.81
2022-10-21T12:01:02.514Z,96785.22
2022-10-21T12:03:52.490Z,96791.09
2022-10-21T12:06:34.273Z,96789.38
2022-10-21T12:09:06.564Z,96777.66
2022-10-21T12:11:42.825Z,96775.94
2022-10-21T12:14:31.100Z,96773.75
2022-10-21T12:17:04.313Z,96781.94
2022-10-21T12:19:33.502Z,96768.63
2022-10-21T12:22:03.114Z,96774.00
2022-10-21T12:24:45.307Z,96770.84
2022-10-21T12:27:23.489Z,96767.94
2022-10-21T12:30:08.570Z,96771.50
2022-10-21T12:32:46.657Z,96776.84
2022-10-21T12:35:21.310Z,96771.16
2022-10-21T12:38:21.958Z,96771.81
2022-10-21T12:40:52.223Z,96762.78
2022-10-21T12:43:27.321Z,96767.75
2022-10-21T12:46:09.443Z,96758.97
2022-10-21T12:48:41.912Z,96759.75
2022-10-21T12:51:23.582Z,96744.53
2022-10-21T12:53:56.373Z,96754.25
2022-10-21T12:56:32.873Z,96743.84
2022-10-21T12:59:06.872Z,96745.59
2022-10-21T13:01:42.833Z,96744.38
2022-10-21T13:04:45.828Z,96740.94
2022-10-21T13:07:39.373Z,96742.31
2022-10-21T13:10:26.890Z,96744.72
2022-10-21T13:13:35.578Z,96738.38
2022-10-21T13:16:38.640Z,96724.84
2022-10-21T13:19:34.922Z,96729.78
2022-10-21T13:22:12.043Z,96735.22
2022-10-21T13:24:41.411Z,96729.97
2022-10-21T13:27:29.852Z,96737.28
2022-10-21T13:29:59.396Z,96739.75
2022-10-21T13:32:34.858Z,96748.84
2022-10-21T13:35:34.253Z,96745.72
2022-10-21T13:38:07.142Z,96728.75
2022-10-21T13:40:46.774Z,96742.97
2022-10-21T13:43:18.906Z,96741.97
2022-10-21T13:46:00.615Z,96744.84
2022-10-21T13:48:30.294Z,96750.56
2022-10-21T13:51:16.056Z,96745.03
2022-10-21T13:53:46.550Z,96745.13
2022-10-21T13:56:23.155Z,96747.56
2022-10-21T13:58:51.994Z,96752.97
2022-10-21T14:01:25.398Z,96745.63
2022-10-21T14:03:58.689Z,96755.63
2022-10-21T14:06:32.379Z,96757.59
2022-10-21T14:09:01.749Z,96762.47
2022-10-21T14:11:36.511Z,96762.41
2022-10-21T14:14:10.799Z,96760.84
2022-10-21T14:16:42.679Z,96770.88
2022-10-21T14:19:20.892Z,96780.03
2022-10-21T14:21:53.563Z,96788.94
2022-10-21T14:24:33.359Z,96782.13
2022-10-21T14:27:03.064Z,96778.88
2022-10-21T14:29:34.492Z,96763.34
2022-10-21T14:32:05.708Z,96776.38
2022-10-21T14:34:39.574Z,96774.38
2022-10-21T14:37:22.071Z,96754.59
2022-10-21T14:39:50.514Z,96754.97
2022-10-21T14:42:22.389Z,96753.84
2022-10-21T14:44:54.338Z,96741.28
2022-10-21T14:47:27.452Z,96750.78
2022-10-21T14:49:59.729Z,96750.47
2022-10-21T14:52:37.838Z,96752.31
2022-10-21T14:55:11.173Z,96752.66
2022-10-21T14:57:44.303Z,96749.28
2022-10-21T15:00:29.070Z,96753.38
2022-10-21T15:02:59.886Z,96753.16
2022-10-21T15:05:38.161Z,96746.69
2022-10-21T15:08:32.915Z,96752.84
2022-10-21T15:11:23.413Z,96747.31
2022-10-21T15:14:31.855Z,96745.50
2022-10-21T15:17:04.499Z,96753.06
2022-10-21T15:19:45.934Z,96736.97
2022-10-21T15:22:26.862Z,96737.84
2022-10-21T15:25:01.627Z,96729.47
2022-10-21T15:27:37.007Z,96730.06
2022-10-21T15:30:08.833Z,96742.56
2022-10-21T15:32:39.784Z,96747.66
2022-10-21T15:35:16.535Z,96740.94
2022-10-21T15:37:49.731Z,96743.97
2022-10-21T15:40:20.120Z,96738.50
2022-10-21T15:42:49.269Z,96732.63
2022-10-21T15:45:21.269Z,96734.50
2022-10-21T15:47:53.498Z,96732.50
2022-10-21T15:50:26.163Z,96731.91
2022-10-21T15:55:24.983Z,96727.81
2022-10-21T15:57:53.514Z,96726.22
2022-10-21T16:00:24.364Z,96726.09
2022-10-21T16:02:53.169Z,96724.50
2022-10-21T16:05:22.709Z,96722.97
2022-10-21T16:07:51.365Z,96713.13
2022-10-21T16:10:23.787Z,96721.53
2022-10-21T16:12:52.816Z,96727.09
2022-10-21T16:15:25.132Z,96726.56
2022-10-21T16:17:57.813Z,96728.53
2022-10-21T16:20:29.581Z,96713.31
2022-10-21T16:23:01.944Z,96715.47
2022-10-21T16:25:33.391Z,96713.75
2022-10-21T16:28:02.052Z,96715.44
2022-10-21T16:30:35.387Z,96715.50
2022-10-21T16:33:07.112Z,96706.09
2022-10-21T16:35:40.264Z,96712.16
2022-10-21T16:38:08.671Z,96713.06
2022-10-21T16:40:38.518Z,96710.13
2022-10-21T16:43:08.322Z,96708.59
2022-10-21T16:45:36.614Z,96715.06
2022-10-21T16:48:06.723Z,96730.81
2022-10-21T16:50:40.756Z,96731.91
2022-10-21T16:53:15.963Z,96726.75
2022-10-21T16:55:46.209Z,96719.53
2022-10-21T16:58:14.733Z,96727.03
2022-10-21T17:00:43.093Z,96722.94
2022-10-21T17:03:12.492Z,96726.59
2022-10-21T17:05:40.839Z,96718.06
2022-10-21T17:08:09.217Z,96713.97
2022-10-21T17:10:37.738Z,96723.78
2022-10-21T17:13:08.529Z,96716.41
2022-10-21T17:15:38.058Z,96720.31
2022-10-21T17:18:06.645Z,96705.25
2022-10-21T17:20:36.018Z,96712.31
2022-10-21T17:23:06.592Z,96704.88
2022-10-21T17:25:34.981Z,96701.69
2022-10-21T17:28:03.424Z,96701.66
2022-10-21T17:30:40.108Z,96689.81
2022-10-21T17:33:10.669Z,96689.03
2022-10-21T17:35:44.053Z,96670.97
2022-10-21T17:38:14.895Z,96663.63
2022-10-21T17:40:43.831Z,96661.44
2022-10-21T17:43:12.203Z,96660.22
2022-10-21T17:45:43.204Z,96656.28
2022-10-21T17:48:11.977Z,96642.56
2022-10-21T17:50:41.348Z,96653.81
2022-10-21T17:53:09.919Z,96668.81
2022-10-21T17:55:38.176Z,96666.16
2022-10-21T17:58:06.868Z,96682.88
2022-10-21T18:00:35.798Z,96689.81
2022-10-21T18:03:05.483Z,96684.72
2022-10-21T18:05:34.098Z,96679.06
2022-10-21T18:08:02.497Z,96686.09
2022-10-21T18:10:30.777Z,96686.63
2022-10-21T18:12:59.136Z,96698.88
2022-10-21T18:15:28.274Z,96691.53
2022-10-21T18:17:57.132Z,96700.66
2022-10-21T18:20:27.087Z,96682.56
2022-10-21T18:22:55.344Z,96673.59
2022-10-21T18:25:23.711Z,96676.28
2022-10-21T18:27:52.100Z,96671.63
2022-10-21T18:30:20.658Z,96664.38
2022-10-21T18:32:49.191Z,96645.84
2022-10-21T18:35:18.417Z,96647.25
2022-10-21T18:37:48.353Z,96665.31
2022-10-21T18:40:16.898Z,96657.31
2022-10-21T18:42:45.832Z,96663.19
2022-10-21T18:45:14.182Z,96656.88
2022-10-21T18:47:47.082Z,96653.91
2022-10-21T18:50:16.481Z,96649.03
2022-10-21T18:52:45.487Z,96643.63
2022-10-21T18:55:18.581Z,96631.72
2022-10-21T18:57:46.960Z,96631.94
2022-10-21T19:00:15.822Z,96633.63
2022-10-21T19:02:46.637Z,96619.44
2022-10-21T19:05:15.491Z,96611.63
2022-10-21T19:07:43.947Z,96616.34
2022-10-21T19:10:15.346Z,96635.41
2022-10-21T19:12:45.665Z,96637.56
2022-10-21T19:15:14.456Z,96652.09
2022-10-21T19:17:43.926Z,96648.81
2022-10-21T19:20:12.352Z,96656.66
2022-10-21T19:22:40.859Z,96666.03
2022-10-21T19:25:10.413Z,96661.56
2022-10-21T19:27:38.956Z,96667.28
2022-10-21T19:30:11.134Z,96669.56
2022-10-21T19:32:39.780Z,96670.69
2022-10-21T19:35:10.002Z,96675.88
2022-10-21T19:37:38.798Z,96664.13
2022-10-21T19:40:08.379Z,96660.88
2022-10-21T19:42:36.818Z,96653.53
2022-10-21T19:45:06.504Z,96662.00
2022-10-21T19:47:37.964Z,96659.66
2022-10-21T19:50:08.266Z,96667.13
2022-10-21T19:52:37.844Z,96659.59
2022-10-21T19:55:07.509Z,96742.97
2022-10-21T19:57:36.268Z,96642.31
2022-10-21T20:00:07.094Z,96643.66
2022-10-21T20:02:43.357Z,96635.03
2022-10-21T20:05:12.347Z,96637.06
2022-10-21T20:07:41.455Z,96635.72
2022-10-21T20:10:11.039Z,96648.94
2022-10-21T20:12:39.596Z,96641.13
2022-10-21T20:15:09.435Z,96644.91
2022-10-21T20:17:39.205Z,96646.50
2022-10-21T20:20:12.470Z,96650.72
2022-10-21T20:22:45.999Z,96647.34
2022-10-21T20:25:14.964Z,96663.03
2022-10-21T20:27:43.354Z,96672.53
2022-10-21T20:30:13.009Z,96666.09
2022-10-21T20:32:48.815Z,96680.22
2022-10-21T20:35:19.173Z,96701.34
2022-10-21T20:37:51.991Z,96696.25
2022-10-21T20:40:20.859Z,96693.72
2022-10-21T20:42:50.003Z,96701.94
2022-10-21T20:45:22.740Z,96693.84
2022-10-21T20:47:53.387Z,96692.28
2022-10-21T20:50:22.934Z,96693.75
2022-10-21T20:52:52.223Z,96675.59
2022-10-21T20:55:21.431Z,96666.78
2022-10-21T20:57:50.003Z,96684.28
2022-10-21T21:00:18.513Z,96679.09
2022-10-21T21:02:46.904Z,96672.97
2022-10-21T21:05:17.026Z,96674.03
2022-10-21T21:07:45.361Z,96662.19
2022-10-21T21:10:14.651Z,96668.84
2022-10-21T21:12:43.134Z,96648.81
2022-10-21T21:15:12.113Z,96652.44
2022-10-21T21:17:40.563Z,96649.09
2022-10-21T21:20:10.908Z,96642.91
2022-10-21T21:22:40.988Z,96649.25
2022-10-21T21:25:11.824Z,96657.47
2022-10-21T21:27:41.538Z,96656.94
2022-10-21T21:30:12.493Z,96663.06
2022-10-21T21:32:41.169Z,96673.84
2022-10-21T21:35:10.828Z,96666.84
2022-10-21T21:37:40.602Z,96675.03
2022-10-21T21:40:15.900Z,96684.00
2022-10-21T21:42:44.396Z,96681.06
2022-10-21T21:45:14.522Z,96682.94
2022-10-21T21:47:45.599Z,96683.66
2022-10-21T21:50:14.281Z,96670.16
2022-10-21T21:52:45.992Z,96679.94
2022-10-21T21:55:16.436Z,96683.81
2022-10-21T21:57:47.202Z,96675.41
2022-10-21T22:00:16.641Z,96666.88
2022-10-21T22:02:45.470Z,96672.28
2022-10-21T22:05:15.160Z,96673.81
2022-10-21T22:07:45.763Z,96676.78
2022-10-21T22:10:15.783Z,96676.78
2022-10-21T22:12:44.826Z,96681.66
2022-10-21T22:15:29.672Z,96694.81
2022-10-21T22:18:05.585Z,96697.38
2022-10-21T22:20:34.238Z,96709.25
2022-10-21T22:23:04.050Z,96714.78
2022-10-21T22:25:32.490Z,96718.66
2022-10-21T22:28:01.977Z,96721.97
2022-10-21T22:30:30.464Z,96729.78
2022-10-21T22:32:59.863Z,96733.50
2022-10-21T22:35:30.371Z,96708.28
2022-10-21T22:37:58.725Z,96707.53
2022-10-21T22:40:28.704Z,96713.09
2022-10-21T22:42:57.192Z,96718.09
2022-10-21T22:45:25.883Z,96723.09
2022-10-21T22:47:54.742Z,96718.97
2022-10-21T22:50:23.226Z,96725.91
2022-10-21T22:52:51.809Z,96732.91
2022-10-21T22:55:20.150Z,96734.97
2022-10-21T22:57:51.257Z,96744.25
2022-10-21T23:00:19.954Z,96735.28
2022-10-21T23:02:49.465Z,96737.72
2022-10-21T23:05:18.813Z,96760.09
2022-10-21T23:07:47.190Z,96770.56
2022-10-21T23:10:16.009Z,96770.56
2022-10-21T23:12:45.914Z,96755.91
2022-10-21T23:15:16.078Z,96741.81
2022-10-21T23:17:44.699Z,96770.34
2022-10-21T23:20:13.998Z,96766.91
2022-10-21T23:22:42.928Z,96767.84
2022-10-21T23:25:11.957Z,96757.88
2022-10-21T23:27:42.712Z,96759.28
2022-10-21T23:30:12.595Z,96781.81
2022-10-21T23:32:42.684Z,96768.03
2022-10-21T23:35:13.954Z,96749.63
2022-10-21T23:37:44.094Z,96756.72
2022-10-21T23:40:14.168Z,96762.25
2022-10-21T23:42:43.071Z,96756.59
2022-10-21T23:45:12.779Z,96757.69
2022-10-21T23:47:43.274Z,96782.84
2022-10-21T23:50:12.765Z,96791.25
2022-10-21T23:52:42.078Z,96818.28
2022-10-21T23:55:11.667Z,96850.09
2022-10-21T23:57:41.377Z,96827.56
